sensor_id;sensor_type;location;lat;lon;timestamp;P1;durP1;ratioP1;P2;durP2;ratioP2
66870;SDS011;53780;44.998;9.926;2023-05-20T00:02:01;10.95;;;6.32;;
66870;SDS011;53780;44.998;9.926;2023-05-20T00:05:05;12.63;;;6.27;;
66870;SDS011;53780;44.998;9.926;2023-05-20T00:08:09;12.73;;;6.55;;
66870;SDS011;53780;44.998;9.926;2023-05-20T00:11:13;13.00;;;7.13;;
66870;SDS011;53780;44.998;9.926;2023-05-20T00:14:17;11.93;;;6.63;;
66870;SDS011;53780;44.998;9.926;2023-05-20T00:17:21;13.93;;;6.97;;
66870;SDS011;53780;44.998;9.926;2023-05-20T00:20:24;12.67;;;6.63;;
66870;SDS011;53780;44.998;9.926;2023-05-20T00:23:28;12.40;;;6.88;;
66870;SDS011;53780;44.998;9.926;2023-05-20T00:26:32;13.15;;;7.28;;
66870;SDS011;53780;44.998;9.926;2023-05-20T00:29:36;12.98;;;6.90;;
66870;SDS011;53780;44.998;9.926;2023-05-20T00:32:40;11.80;;;6.93;;
66870;SDS011;53780;44.998;9.926;2023-05-20T00:35:44;13.00;;;7.13;;
66870;SDS011;53780;44.998;9.926;2023-05-20T00:38:47;12.95;;;7.63;;
66870;SDS011;53780;44.998;9.926;2023-05-20T00:41:51;13.88;;;7.82;;
66870;SDS011;53780;44.998;9.926;2023-05-20T00:44:55;13.02;;;7.60;;
66870;SDS011;53780;44.998;9.926;2023-05-20T00:47:59;15.60;;;7.82;;
66870;SDS011;53780;44.998;9.926;2023-05-20T00:51:07;15.53;;;8.43;;
66870;SDS011;53780;44.998;9.926;2023-05-20T00:54:12;15.68;;;8.20;;
66870;SDS011;53780;44.998;9.926;2023-05-20T00:57:17;16.58;;;7.78;;
66870;SDS011;53780;44.998;9.926;2023-05-20T01:00:22;17.55;;;8.13;;
66870;SDS011;53780;44.998;9.926;2023-05-20T01:03:26;16.48;;;8.18;;
66870;SDS011;53780;44.998;9.926;2023-05-20T01:06:30;16.30;;;7.80;;
66870;SDS011;53780;44.998;9.926;2023-05-20T01:09:35;14.57;;;8.35;;
66870;SDS011;53780;44.998;9.926;2023-05-20T01:12:44;18.38;;;8.50;;
66870;SDS011;53780;44.998;9.926;2023-05-20T01:15:50;16.98;;;8.70;;
66870;SDS011;53780;44.998;9.926;2023-05-20T01:18:58;15.07;;;8.57;;
66870;SDS011;53780;44.998;9.926;2023-05-20T01:22:06;17.83;;;9.17;;
66870;SDS011;53780;44.998;9.926;2023-05-20T01:25:10;15.10;;;8.65;;
66870;SDS011;53780;44.998;9.926;2023-05-20T01:28:14;16.90;;;8.93;;
66870;SDS011;53780;44.998;9.926;2023-05-20T01:31:22;18.42;;;9.13;;
66870;SDS011;53780;44.998;9.926;2023-05-20T01:34:29;18.98;;;9.30;;
66870;SDS011;53780;44.998;9.926;2023-05-20T01:37:33;15.10;;;8.47;;
66870;SDS011;53780;44.998;9.926;2023-05-20T01:40:41;15.85;;;8.00;;
66870;SDS011;53780;44.998;9.926;2023-05-20T01:43:45;18.05;;;8.40;;
66870;SDS011;53780;44.998;9.926;2023-05-20T01:46:49;19.08;;;8.75;;
66870;SDS011;53780;44.998;9.926;2023-05-20T01:49:53;17.10;;;8.77;;
66870;SDS011;53780;44.998;9.926;2023-05-20T01:52:57;17.50;;;9.07;;
66870;SDS011;53780;44.998;9.926;2023-05-20T01:56:01;19.40;;;9.52;;
66870;SDS011;53780;44.998;9.926;2023-05-20T01:59:05;17.27;;;9.63;;
66870;SDS011;53780;44.998;9.926;2023-05-20T02:02:11;16.45;;;9.77;;
66870;SDS011;53780;44.998;9.926;2023-05-20T02:05:16;18.15;;;9.48;;
66870;SDS011;53780;44.998;9.926;2023-05-20T02:08:20;17.27;;;10.00;;
66870;SDS011;53780;44.998;9.926;2023-05-20T02:11:23;16.67;;;10.35;;
66870;SDS011;53780;44.998;9.926;2023-05-20T02:14:30;19.80;;;10.30;;
66870;SDS011;53780;44.998;9.926;2023-05-20T02:17:35;17.02;;;10.38;;
66870;SDS011;53780;44.998;9.926;2023-05-20T02:20:39;18.35;;;9.85;;
66870;SDS011;53780;44.998;9.926;2023-05-20T02:23:43;18.53;;;10.37;;
66870;SDS011;53780;44.998;9.926;2023-05-20T02:26:47;18.65;;;10.07;;
66870;SDS011;53780;44.998;9.926;2023-05-20T02:29:53;19.70;;;9.88;;
66870;SDS011;53780;44.998;9.926;2023-05-20T02:32:56;22.42;;;10.02;;
66870;SDS011;53780;44.998;9.926;2023-05-20T02:36:01;22.45;;;10.20;;
66870;SDS011;53780;44.998;9.926;2023-05-20T02:39:05;19.40;;;10.37;;
66870;SDS011;53780;44.998;9.926;2023-05-20T02:42:10;19.55;;;10.93;;
66870;SDS011;53780;44.998;9.926;2023-05-20T02:45:14;21.20;;;11.88;;
66870;SDS011;53780;44.998;9.926;2023-05-20T02:48:18;20.70;;;11.10;;
66870;SDS011;53780;44.998;9.926;2023-05-20T02:51:22;20.77;;;11.45;;
66870;SDS011;53780;44.998;9.926;2023-05-20T02:54:28;21.33;;;10.80;;
66870;SDS011;53780;44.998;9.926;2023-05-20T02:57:32;19.17;;;10.70;;
66870;SDS011;53780;44.998;9.926;2023-05-20T03:00:39;19.63;;;10.98;;
66870;SDS011;53780;44.998;9.926;2023-05-20T03:03:43;19.83;;;11.05;;
66870;SDS011;53780;44.998;9.926;2023-05-20T03:06:47;19.80;;;10.07;;
66870;SDS011;53780;44.998;9.926;2023-05-20T03:09:52;18.20;;;9.93;;
66870;SDS011;53780;44.998;9.926;2023-05-20T03:12:56;18.67;;;10.73;;
66870;SDS011;53780;44.998;9.926;2023-05-20T03:16:00;19.80;;;10.25;;
66870;SDS011;53780;44.998;9.926;2023-05-20T03:19:03;20.23;;;10.50;;
66870;SDS011;53780;44.998;9.926;2023-05-20T03:22:07;18.67;;;10.15;;
66870;SDS011;53780;44.998;9.926;2023-05-20T03:25:11;20.07;;;10.03;;
66870;SDS011;53780;44.998;9.926;2023-05-20T03:28:15;19.38;;;10.15;;
66870;SDS011;53780;44.998;9.926;2023-05-20T03:31:20;17.08;;;9.88;;
66870;SDS011;53780;44.998;9.926;2023-05-20T03:34:24;20.05;;;10.40;;
66870;SDS011;53780;44.998;9.926;2023-05-20T03:37:30;18.75;;;10.23;;
66870;SDS011;53780;44.998;9.926;2023-05-20T03:40:34;17.13;;;9.63;;
66870;SDS011;53780;44.998;9.926;2023-05-20T03:43:38;19.55;;;9.60;;
66870;SDS011;53780;44.998;9.926;2023-05-20T03:46:43;21.88;;;10.32;;
66870;SDS011;53780;44.998;9.926;2023-05-20T03:49:46;20.35;;;9.23;;
66870;SDS011;53780;44.998;9.926;2023-05-20T03:52:50;19.73;;;9.73;;
66870;SDS011;53780;44.998;9.926;2023-05-20T03:55:57;19.57;;;9.93;;
66870;SDS011;53780;44.998;9.926;2023-05-20T03:59:01;17.55;;;10.27;;
66870;SDS011;53780;44.998;9.926;2023-05-20T04:02:05;20.92;;;10.35;;
66870;SDS011;53780;44.998;9.926;2023-05-20T04:05:09;20.45;;;10.70;;
66870;SDS011;53780;44.998;9.926;2023-05-20T04:08:15;18.10;;;9.70;;
66870;SDS011;53780;44.998;9.926;2023-05-20T04:11:21;18.97;;;9.83;;
66870;SDS011;53780;44.998;9.926;2023-05-20T04:14:25;18.90;;;9.77;;
66870;SDS011;53780;44.998;9.926;2023-05-20T04:17:29;19.00;;;10.07;;
66870;SDS011;53780;44.998;9.926;2023-05-20T04:20:35;18.25;;;9.50;;
66870;SDS011;53780;44.998;9.926;2023-05-20T04:23:39;18.85;;;10.02;;
66870;SDS011;53780;44.998;9.926;2023-05-20T04:26:42;18.80;;;10.30;;
66870;SDS011;53780;44.998;9.926;2023-05-20T04:29:48;20.70;;;10.65;;
66870;SDS011;53780;44.998;9.926;2023-05-20T04:32:52;23.52;;;11.15;;
66870;SDS011;53780;44.998;9.926;2023-05-20T04:35:57;19.98;;;10.88;;
66870;SDS011;53780;44.998;9.926;2023-05-20T04:39:02;19.88;;;10.20;;
66870;SDS011;53780;44.998;9.926;2023-05-20T04:42:08;21.67;;;10.60;;
66870;SDS011;53780;44.998;9.926;2023-05-20T04:45:12;21.90;;;10.40;;
66870;SDS011;53780;44.998;9.926;2023-05-20T04:48:18;20.52;;;10.43;;
66870;SDS011;53780;44.998;9.926;2023-05-20T04:51:23;20.48;;;11.13;;
66870;SDS011;53780;44.998;9.926;2023-05-20T04:54:28;22.02;;;11.48;;
66870;SDS011;53780;44.998;9.926;2023-05-20T04:57:33;19.20;;;10.43;;
66870;SDS011;53780;44.998;9.926;2023-05-20T05:00:37;18.77;;;9.90;;
66870;SDS011;53780;44.998;9.926;2023-05-20T05:03:42;17.50;;;10.23;;
66870;SDS011;53780;44.998;9.926;2023-05-20T05:06:47;21.48;;;10.43;;
66870;SDS011;53780;44.998;9.926;2023-05-20T05:09:52;21.70;;;10.30;;
66870;SDS011;53780;44.998;9.926;2023-05-20T05:12:56;23.33;;;10.20;;
66870;SDS011;53780;44.998;9.926;2023-05-20T05:16:02;19.98;;;10.38;;
66870;SDS011;53780;44.998;9.926;2023-05-20T05:19:08;21.00;;;11.32;;
66870;SDS011;53780;44.998;9.926;2023-05-20T05:22:14;23.58;;;10.73;;
66870;SDS011;53780;44.998;9.926;2023-05-20T05:25:18;24.65;;;10.98;;
66870;SDS011;53780;44.998;9.926;2023-05-20T05:28:22;19.13;;;10.40;;
66870;SDS011;53780;44.998;9.926;2023-05-20T05:31:27;22.88;;;11.20;;
66870;SDS011;53780;44.998;9.926;2023-05-20T05:34:30;21.83;;;10.65;;
66870;SDS011;53780;44.998;9.926;2023-05-20T05:37:35;22.95;;;10.93;;
66870;SDS011;53780;44.998;9.926;2023-05-20T05:40:39;21.30;;;10.88;;
66870;SDS011;53780;44.998;9.926;2023-05-20T05:43:44;23.13;;;11.70;;
66870;SDS011;53780;44.998;9.926;2023-05-20T05:46:48;23.42;;;11.40;;
66870;SDS011;53780;44.998;9.926;2023-05-20T05:49:53;23.50;;;11.82;;
66870;SDS011;53780;44.998;9.926;2023-05-20T05:52:57;20.92;;;11.35;;
66870;SDS011;53780;44.998;9.926;2023-05-20T05:56:02;24.88;;;12.18;;
66870;SDS011;53780;44.998;9.926;2023-05-20T05:59:06;22.57;;;11.43;;
66870;SDS011;53780;44.998;9.926;2023-05-20T06:02:10;20.83;;;11.57;;
66870;SDS011;53780;44.998;9.926;2023-05-20T06:05:17;24.45;;;12.05;;
66870;SDS011;53780;44.998;9.926;2023-05-20T06:08:21;24.90;;;11.27;;
66870;SDS011;53780;44.998;9.926;2023-05-20T06:11:25;24.00;;;12.15;;
66870;SDS011;53780;44.998;9.926;2023-05-20T06:14:29;24.00;;;11.57;;
66870;SDS011;53780;44.998;9.926;2023-05-20T06:17:35;25.75;;;11.57;;
66870;SDS011;53780;44.998;9.926;2023-05-20T06:20:39;26.02;;;12.30;;
66870;SDS011;53780;44.998;9.926;2023-05-20T06:23:43;25.23;;;12.25;;
66870;SDS011;53780;44.998;9.926;2023-05-20T06:26:49;28.55;;;12.68;;
66870;SDS011;53780;44.998;9.926;2023-05-20T06:29:53;25.43;;;12.77;;
66870;SDS011;53780;44.998;9.926;2023-05-20T06:32:57;27.02;;;13.20;;
66870;SDS011;53780;44.998;9.926;2023-05-20T06:36:01;24.48;;;12.35;;
66870;SDS011;53780;44.998;9.926;2023-05-20T06:39:05;27.25;;;13.25;;
66870;SDS011;53780;44.998;9.926;2023-05-20T06:42:14;26.90;;;12.77;;
66870;SDS011;53780;44.998;9.926;2023-05-20T06:45:24;25.63;;;12.60;;
66870;SDS011;53780;44.998;9.926;2023-05-20T06:48:32;28.25;;;12.85;;
66870;SDS011;53780;44.998;9.926;2023-05-20T06:51:37;24.33;;;12.48;;
66870;SDS011;53780;44.998;9.926;2023-05-20T06:54:41;27.48;;;12.63;;
66870;SDS011;53780;44.998;9.926;2023-05-20T06:57:47;26.80;;;12.40;;
66870;SDS011;53780;44.998;9.926;2023-05-20T07:00:54;26.00;;;12.60;;
66870;SDS011;53780;44.998;9.926;2023-05-20T07:03:58;29.70;;;12.90;;
66870;SDS011;53780;44.998;9.926;2023-05-20T07:07:02;25.65;;;12.68;;
66870;SDS011;53780;44.998;9.926;2023-05-20T07:10:06;25.98;;;12.65;;
66870;SDS011;53780;44.998;9.926;2023-05-20T07:13:11;26.60;;;13.38;;
66870;SDS011;53780;44.998;9.926;2023-05-20T07:16:14;26.50;;;12.47;;
66870;SDS011;53780;44.998;9.926;2023-05-20T07:19:23;24.08;;;12.07;;
66870;SDS011;53780;44.998;9.926;2023-05-20T07:22:26;27.35;;;13.45;;
66870;SDS011;53780;44.998;9.926;2023-05-20T07:25:44;27.95;;;13.55;;
66870;SDS011;53780;44.998;9.926;2023-05-20T07:28:49;26.63;;;13.60;;
66870;SDS011;53780;44.998;9.926;2023-05-20T07:31:54;30.20;;;14.73;;
66870;SDS011;53780;44.998;9.926;2023-05-20T07:34:58;27.80;;;14.43;;
66870;SDS011;53780;44.998;9.926;2023-05-20T07:38:02;27.10;;;13.73;;
66870;SDS011;53780;44.998;9.926;2023-05-20T07:41:06;25.98;;;13.48;;
66870;SDS011;53780;44.998;9.926;2023-05-20T07:44:11;28.35;;;14.57;;
66870;SDS011;53780;44.998;9.926;2023-05-20T07:47:19;25.77;;;13.80;;
66870;SDS011;53780;44.998;9.926;2023-05-20T07:50:23;31.88;;;15.05;;
66870;SDS011;53780;44.998;9.926;2023-05-20T07:53:29;28.30;;;14.55;;
66870;SDS011;53780;44.998;9.926;2023-05-20T07:56:34;28.23;;;14.70;;
66870;SDS011;53780;44.998;9.926;2023-05-20T07:59:38;28.92;;;15.23;;
66870;SDS011;53780;44.998;9.926;2023-05-20T08:02:42;29.00;;;14.70;;
66870;SDS011;53780;44.998;9.926;2023-05-20T08:05:47;26.63;;;14.60;;
66870;SDS011;53780;44.998;9.926;2023-05-20T08:08:51;26.70;;;13.77;;
66870;SDS011;53780;44.998;9.926;2023-05-20T08:12:04;24.98;;;14.15;;
66870;SDS011;53780;44.998;9.926;2023-05-20T08:15:08;25.05;;;13.50;;
66870;SDS011;53780;44.998;9.926;2023-05-20T08:18:13;24.00;;;12.60;;
66870;SDS011;53780;44.998;9.926;2023-05-20T08:21:20;25.70;;;13.50;;
66870;SDS011;53780;44.998;9.926;2023-05-20T08:24:25;23.48;;;12.70;;
66870;SDS011;53780;44.998;9.926;2023-05-20T08:27:30;25.52;;;12.32;;
66870;SDS011;53780;44.998;9.926;2023-05-20T08:30:33;21.75;;;11.85;;
66870;SDS011;53780;44.998;9.926;2023-05-20T08:33:37;20.33;;;11.70;;
66870;SDS011;53780;44.998;9.926;2023-05-20T08:36:42;18.42;;;10.70;;
66870;SDS011;53780;44.998;9.926;2023-05-20T08:39:47;19.65;;;10.55;;
66870;SDS011;53780;44.998;9.926;2023-05-20T08:42:52;18.83;;;9.82;;
66870;SDS011;53780;44.998;9.926;2023-05-20T08:45:56;19.67;;;10.02;;
66870;SDS011;53780;44.998;9.926;2023-05-20T08:49:03;18.87;;;10.20;;
66870;SDS011;53780;44.998;9.926;2023-05-20T08:52:07;18.02;;;10.25;;
66870;SDS011;53780;44.998;9.926;2023-05-20T08:58:41;19.52;;;10.73;;
66870;SDS011;53780;44.998;9.926;2023-05-20T09:01:45;18.52;;;10.52;;
66870;SDS011;53780;44.998;9.926;2023-05-20T09:04:50;20.03;;;10.43;;
66870;SDS011;53780;44.998;9.926;2023-05-20T09:08:10;20.40;;;10.70;;
66870;SDS011;53780;44.998;9.926;2023-05-20T09:11:15;20.00;;;10.45;;
66870;SDS011;53780;44.998;9.926;2023-05-20T09:14:19;19.00;;;10.15;;
66870;SDS011;53780;44.998;9.926;2023-05-20T09:17:22;20.85;;;10.75;;
66870;SDS011;53780;44.998;9.926;2023-05-20T09:20:27;21.70;;;10.43;;
66870;SDS011;53780;44.998;9.926;2023-05-20T09:23:37;18.85;;;10.40;;
66870;SDS011;53780;44.998;9.926;2023-05-20T09:26:41;18.67;;;9.93;;
66870;SDS011;53780;44.998;9.926;2023-05-20T09:29:48;20.33;;;10.30;;
66870;SDS011;53780;44.998;9.926;2023-05-20T09:32:56;19.92;;;10.23;;
66870;SDS011;53780;44.998;9.926;2023-05-20T09:36:06;19.73;;;10.07;;
66870;SDS011;53780;44.998;9.926;2023-05-20T09:39:13;19.60;;;9.98;;
66870;SDS011;53780;44.998;9.926;2023-05-20T09:42:26;19.02;;;10.63;;
66870;SDS011;53780;44.998;9.926;2023-05-20T09:45:33;18.88;;;10.43;;
66870;SDS011;53780;44.998;9.926;2023-05-20T09:48:38;19.27;;;10.10;;
66870;SDS011;53780;44.998;9.926;2023-05-20T09:51:42;17.73;;;9.63;;
66870;SDS011;53780;44.998;9.926;2023-05-20T09:54:46;17.58;;;9.85;;
66870;SDS011;53780;44.998;9.926;2023-05-20T09:57:52;19.83;;;10.55;;
66870;SDS011;53780;44.998;9.926;2023-05-20T10:00:57;22.83;;;10.70;;
66870;SDS011;53780;44.998;9.926;2023-05-20T10:04:00;20.05;;;10.00;;
66870;SDS011;53780;44.998;9.926;2023-05-20T10:17:20;18.77;;;9.45;;
66870;SDS011;53780;44.998;9.926;2023-05-20T10:20:29;18.17;;;9.05;;
66870;SDS011;53780;44.998;9.926;2023-05-20T10:27:12;17.42;;;9.07;;
66870;SDS011;53780;44.998;9.926;2023-05-20T10:30:18;17.38;;;9.07;;
66870;SDS011;53780;44.998;9.926;2023-05-20T10:33:26;18.38;;;9.18;;
66870;SDS011;53780;44.998;9.926;2023-05-20T10:36:31;19.23;;;9.88;;
66870;SDS011;53780;44.998;9.926;2023-05-20T10:39:37;17.60;;;9.60;;
66870;SDS011;53780;44.998;9.926;2023-05-20T10:42:42;19.23;;;10.32;;
66870;SDS011;53780;44.998;9.926;2023-05-20T10:45:49;19.13;;;10.25;;
66870;SDS011;53780;44.998;9.926;2023-05-20T10:48:55;17.83;;;9.80;;
66870;SDS011;53780;44.998;9.926;2023-05-20T10:52:00;20.58;;;10.18;;
66870;SDS011;53780;44.998;9.926;2023-05-20T10:55:04;18.97;;;9.77;;
66870;SDS011;53780;44.998;9.926;2023-05-20T10:58:09;25.10;;;11.88;;
66870;SDS011;53780;44.998;9.926;2023-05-20T11:01:14;20.50;;;11.23;;
66870;SDS011;53780;44.998;9.926;2023-05-20T11:04:19;21.38;;;11.00;;
66870;SDS011;53780;44.998;9.926;2023-05-20T11:07:24;20.50;;;11.45;;
66870;SDS011;53780;44.998;9.926;2023-05-20T11:10:28;21.30;;;11.43;;
66870;SDS011;53780;44.998;9.926;2023-05-20T11:13:32;19.38;;;10.73;;
66870;SDS011;53780;44.998;9.926;2023-05-20T11:16:36;19.95;;;10.70;;
66870;SDS011;53780;44.998;9.926;2023-05-20T11:19:41;20.05;;;10.65;;
66870;SDS011;53780;44.998;9.926;2023-05-20T11:22:45;23.38;;;11.32;;
66870;SDS011;53780;44.998;9.926;2023-05-20T11:25:50;19.57;;;10.30;;
66870;SDS011;53780;44.998;9.926;2023-05-20T11:28:55;19.98;;;10.70;;
66870;SDS011;53780;44.998;9.926;2023-05-20T11:31:59;18.83;;;9.48;;
66870;SDS011;53780;44.998;9.926;2023-05-20T11:35:04;19.08;;;10.32;;
66870;SDS011;53780;44.998;9.926;2023-05-20T11:38:08;20.25;;;10.27;;
66870;SDS011;53780;44.998;9.926;2023-05-20T11:41:12;19.57;;;10.53;;
66870;SDS011;53780;44.998;9.926;2023-05-20T11:44:16;21.52;;;10.57;;
66870;SDS011;53780;44.998;9.926;2023-05-20T11:47:25;19.15;;;10.45;;
66870;SDS011;53780;44.998;9.926;2023-05-20T11:50:38;17.58;;;9.43;;
66870;SDS011;53780;44.998;9.926;2023-05-20T11:53:45;19.02;;;10.30;;
66870;SDS011;53780;44.998;9.926;2023-05-20T11:56:49;19.17;;;9.33;;
66870;SDS011;53780;44.998;9.926;2023-05-20T11:59:53;19.80;;;10.32;;
66870;SDS011;53780;44.998;9.926;2023-05-20T12:02:58;19.80;;;10.43;;
66870;SDS011;53780;44.998;9.926;2023-05-20T12:06:03;19.13;;;10.00;;
66870;SDS011;53780;44.998;9.926;2023-05-20T12:09:09;19.80;;;10.32;;
66870;SDS011;53780;44.998;9.926;2023-05-20T12:12:14;18.60;;;10.17;;
66870;SDS011;53780;44.998;9.926;2023-05-20T12:15:19;20.67;;;10.88;;
66870;SDS011;53780;44.998;9.926;2023-05-20T12:18:22;21.83;;;10.73;;
66870;SDS011;53780;44.998;9.926;2023-05-20T12:21:27;18.38;;;9.68;;
66870;SDS011;53780;44.998;9.926;2023-05-20T12:24:32;20.13;;;10.65;;
66870;SDS011;53780;44.998;9.926;2023-05-20T12:27:36;20.00;;;10.17;;
66870;SDS011;53780;44.998;9.926;2023-05-20T12:30:39;18.90;;;10.15;;
66870;SDS011;53780;44.998;9.926;2023-05-20T12:33:44;20.27;;;10.48;;
66870;SDS011;53780;44.998;9.926;2023-05-20T12:36:47;18.58;;;10.57;;
66870;SDS011;53780;44.998;9.926;2023-05-20T12:39:51;19.83;;;10.20;;
66870;SDS011;53780;44.998;9.926;2023-05-20T12:42:56;18.33;;;10.60;;
66870;SDS011;53780;44.998;9.926;2023-05-20T12:46:00;20.40;;;10.68;;
66870;SDS011;53780;44.998;9.926;2023-05-20T12:49:04;18.52;;;10.57;;
66870;SDS011;53780;44.998;9.926;2023-05-20T12:52:08;19.63;;;10.60;;
66870;SDS011;53780;44.998;9.926;2023-05-20T12:55:12;19.15;;;10.32;;
66870;SDS011;53780;44.998;9.926;2023-05-20T12:58:16;21.53;;;10.20;;
66870;SDS011;53780;44.998;9.926;2023-05-20T13:01:19;19.92;;;10.82;;
66870;SDS011;53780;44.998;9.926;2023-05-20T13:04:23;21.73;;;10.82;;
66870;SDS011;53780;44.998;9.926;2023-05-20T13:07:27;18.75;;;10.55;;
66870;SDS011;53780;44.998;9.926;2023-05-20T13:10:31;20.92;;;10.48;;
66870;SDS011;53780;44.998;9.926;2023-05-20T13:13:35;22.50;;;11.53;;
66870;SDS011;53780;44.998;9.926;2023-05-20T13:16:39;21.27;;;11.25;;
66870;SDS011;53780;44.998;9.926;2023-05-20T13:19:44;20.10;;;10.95;;
66870;SDS011;53780;44.998;9.926;2023-05-20T13:22:48;19.65;;;10.68;;
66870;SDS011;53780;44.998;9.926;2023-05-20T13:25:53;19.30;;;10.93;;
66870;SDS011;53780;44.998;9.926;2023-05-20T13:28:57;22.50;;;11.60;;
66870;SDS011;53780;44.998;9.926;2023-05-20T13:32:01;20.67;;;11.23;;
66870;SDS011;53780;44.998;9.926;2023-05-20T13:35:06;24.40;;;12.45;;
66870;SDS011;53780;44.998;9.926;2023-05-20T13:38:10;23.05;;;11.88;;
66870;SDS011;53780;44.998;9.926;2023-05-20T13:41:14;23.05;;;12.90;;
66870;SDS011;53780;44.998;9.926;2023-05-20T13:44:18;23.57;;;12.70;;
66870;SDS011;53780;44.998;9.926;2023-05-20T13:47:22;22.10;;;12.15;;
66870;SDS011;53780;44.998;9.926;2023-05-20T13:50:25;23.55;;;12.52;;
66870;SDS011;53780;44.998;9.926;2023-05-20T13:53:29;21.95;;;11.73;;
66870;SDS011;53780;44.998;9.926;2023-05-20T13:56:33;20.40;;;11.50;;
66870;SDS011;53780;44.998;9.926;2023-05-20T13:59:37;21.03;;;11.60;;
66870;SDS011;53780;44.998;9.926;2023-05-20T14:02:42;20.75;;;11.65;;
66870;SDS011;53780;44.998;9.926;2023-05-20T14:05:46;21.63;;;11.48;;
66870;SDS011;53780;44.998;9.926;2023-05-20T14:08:52;21.60;;;12.13;;
66870;SDS011;53780;44.998;9.926;2023-05-20T14:11:56;22.92;;;12.68;;
66870;SDS011;53780;44.998;9.926;2023-05-20T14:15:00;22.13;;;12.47;;
66870;SDS011;53780;44.998;9.926;2023-05-20T14:18:04;22.42;;;12.35;;
66870;SDS011;53780;44.998;9.926;2023-05-20T14:21:10;22.35;;;12.73;;
66870;SDS011;53780;44.998;9.926;2023-05-20T14:24:14;23.83;;;12.57;;
66870;SDS011;53780;44.998;9.926;2023-05-20T14:27:18;22.25;;;12.55;;
66870;SDS011;53780;44.998;9.926;2023-05-20T14:30:22;23.10;;;12.57;;
66870;SDS011;53780;44.998;9.926;2023-05-20T14:33:26;22.92;;;12.23;;
66870;SDS011;53780;44.998;9.926;2023-05-20T14:36:29;23.50;;;12.50;;
66870;SDS011;53780;44.998;9.926;2023-05-20T14:39:35;23.80;;;13.13;;
66870;SDS011;53780;44.998;9.926;2023-05-20T14:42:40;26.10;;;13.40;;
66870;SDS011;53780;44.998;9.926;2023-05-20T14:45:44;25.90;;;13.90;;
66870;SDS011;53780;44.998;9.926;2023-05-20T14:48:48;25.33;;;13.48;;
66870;SDS011;53780;44.998;9.926;2023-05-20T14:51:53;31.63;;;14.95;;
66870;SDS011;53780;44.998;9.926;2023-05-20T14:54:57;26.52;;;14.55;;
66870;SDS011;53780;44.998;9.926;2023-05-20T14:58:00;29.77;;;15.32;;
66870;SDS011;53780;44.998;9.926;2023-05-20T15:01:04;28.97;;;15.53;;
66870;SDS011;53780;44.998;9.926;2023-05-20T15:04:08;27.30;;;14.90;;
66870;SDS011;53780;44.998;9.926;2023-05-20T15:07:16;28.55;;;15.40;;
66870;SDS011;53780;44.998;9.926;2023-05-20T15:10:20;30.67;;;15.48;;
66870;SDS011;53780;44.998;9.926;2023-05-20T15:13:24;31.52;;;16.20;;
66870;SDS011;53780;44.998;9.926;2023-05-20T15:16:28;28.37;;;15.67;;
66870;SDS011;53780;44.998;9.926;2023-05-20T15:19:32;29.63;;;15.57;;
66870;SDS011;53780;44.998;9.926;2023-05-20T15:22:36;30.02;;;15.77;;
66870;SDS011;53780;44.998;9.926;2023-05-20T15:25:39;32.13;;;16.40;;
66870;SDS011;53780;44.998;9.926;2023-05-20T15:28:44;28.92;;;12.98;;
66870;SDS011;53780;44.998;9.926;2023-05-20T15:31:47;25.90;;;12.97;;
66870;SDS011;53780;44.998;9.926;2023-05-20T15:34:51;26.42;;;12.63;;
66870;SDS011;53780;44.998;9.926;2023-05-20T15:37:55;22.15;;;11.95;;
66870;SDS011;53780;44.998;9.926;2023-05-20T15:40:59;20.23;;;11.20;;
66870;SDS011;53780;44.998;9.926;2023-05-20T15:44:03;19.80;;;10.70;;
66870;SDS011;53780;44.998;9.926;2023-05-20T15:47:08;19.37;;;10.20;;
66870;SDS011;53780;44.998;9.926;2023-05-20T15:50:12;21.67;;;11.68;;
66870;SDS011;53780;44.998;9.926;2023-05-20T15:53:16;23.60;;;11.70;;
66870;SDS011;53780;44.998;9.926;2023-05-20T15:56:20;23.52;;;12.60;;
66870;SDS011;53780;44.998;9.926;2023-05-20T15:59:24;22.02;;;12.05;;
66870;SDS011;53780;44.998;9.926;2023-05-20T16:02:28;23.60;;;11.77;;
66870;SDS011;53780;44.998;9.926;2023-05-20T16:05:34;22.90;;;12.77;;
66870;SDS011;53780;44.998;9.926;2023-05-20T16:08:38;23.80;;;12.65;;
66870;SDS011;53780;44.998;9.926;2023-05-20T16:11:43;25.83;;;13.60;;
66870;SDS011;53780;44.998;9.926;2023-05-20T16:14:47;26.75;;;14.27;;
66870;SDS011;53780;44.998;9.926;2023-05-20T16:17:51;26.90;;;15.00;;
66870;SDS011;53780;44.998;9.926;2023-05-20T16:20:56;28.90;;;15.48;;
66870;SDS011;53780;44.998;9.926;2023-05-20T16:24:00;29.42;;;15.63;;
66870;SDS011;53780;44.998;9.926;2023-05-20T16:27:04;32.50;;;16.52;;
66870;SDS011;53780;44.998;9.926;2023-05-20T16:30:09;34.00;;;16.30;;
66870;SDS011;53780;44.998;9.926;2023-05-20T16:33:14;33.03;;;17.63;;
66870;SDS011;53780;44.998;9.926;2023-05-20T16:36:20;35.55;;;18.23;;
66870;SDS011;53780;44.998;9.926;2023-05-20T16:39:24;35.88;;;18.48;;
66870;SDS011;53780;44.998;9.926;2023-05-20T16:42:28;36.63;;;17.70;;
66870;SDS011;53780;44.998;9.926;2023-05-20T16:45:31;41.15;;;18.95;;
66870;SDS011;53780;44.998;9.926;2023-05-20T16:48:35;36.80;;;18.33;;
66870;SDS011;53780;44.998;9.926;2023-05-20T16:51:40;34.65;;;17.48;;
66870;SDS011;53780;44.998;9.926;2023-05-20T16:54:44;34.72;;;17.67;;
66870;SDS011;53780;44.998;9.926;2023-05-20T16:57:48;35.90;;;17.20;;
66870;SDS011;53780;44.998;9.926;2023-05-20T17:00:53;35.25;;;18.05;;
66870;SDS011;53780;44.998;9.926;2023-05-20T17:03:57;33.47;;;16.63;;
66870;SDS011;53780;44.998;9.926;2023-05-20T17:07:01;33.00;;;17.02;;
66870;SDS011;53780;44.998;9.926;2023-05-20T17:10:06;31.75;;;15.68;;
66870;SDS011;53780;44.998;9.926;2023-05-20T17:13:10;31.23;;;15.77;;
66870;SDS011;53780;44.998;9.926;2023-05-20T17:16:14;28.58;;;15.32;;
66870;SDS011;53780;44.998;9.926;2023-05-20T17:19:18;32.17;;;15.17;;
66870;SDS011;53780;44.998;9.926;2023-05-20T17:22:22;29.95;;;15.90;;
66870;SDS011;53780;44.998;9.926;2023-05-20T17:25:26;32.33;;;16.65;;
66870;SDS011;53780;44.998;9.926;2023-05-20T17:28:29;28.65;;;15.32;;
66870;SDS011;53780;44.998;9.926;2023-05-20T17:31:34;34.75;;;16.58;;
66870;SDS011;53780;44.998;9.926;2023-05-20T17:34:38;28.97;;;15.33;;
66870;SDS011;53780;44.998;9.926;2023-05-20T17:37:42;30.90;;;15.43;;
66870;SDS011;53780;44.998;9.926;2023-05-20T17:40:46;27.90;;;14.50;;
66870;SDS011;53780;44.998;9.926;2023-05-20T17:43:50;32.35;;;14.43;;
66870;SDS011;53780;44.998;9.926;2023-05-20T17:46:54;27.10;;;13.60;;
66870;SDS011;53780;44.998;9.926;2023-05-20T17:49:58;29.70;;;14.53;;
66870;SDS011;53780;44.998;9.926;2023-05-20T17:53:04;29.67;;;13.98;;
66870;SDS011;53780;44.998;9.926;2023-05-20T17:56:08;28.13;;;13.45;;
66870;SDS011;53780;44.998;9.926;2023-05-20T17:59:12;27.08;;;13.02;;
66870;SDS011;53780;44.998;9.926;2023-05-20T18:02:16;33.53;;;14.65;;
66870;SDS011;53780;44.998;9.926;2023-05-20T18:05:20;31.57;;;15.07;;
66870;SDS011;53780;44.998;9.926;2023-05-20T18:08:24;26.20;;;13.88;;
66870;SDS011;53780;44.998;9.926;2023-05-20T18:11:28;27.77;;;13.80;;
66870;SDS011;53780;44.998;9.926;2023-05-20T18:14:36;30.30;;;13.85;;
66870;SDS011;53780;44.998;9.926;2023-05-20T18:17:40;26.80;;;13.00;;
66870;SDS011;53780;44.998;9.926;2023-05-20T18:20:45;26.73;;;13.53;;